DIRECCIÓN GENERAL DE AERONÁUTICA CIVIL
DIRECCIÓN METEOROLÓGICA DE CHILE
INFORMACIÓN METAR Y TAF

FIR PUERTO MONTT

Estación: SCQP
SPECI SCQP 061532Z 34008KT 5000 SHRA BKN016 OVC047 10/09 Q1020=

TAF SCQP 061013Z 0612/0712 36010KT 9999 BKN035 TX11/0616Z TN06/0701Z=

Estación: SCVD
METAR SCVD 061500Z 30008KT 250V320 9999 SCT020 OVC030 11/08 Q1018=

TAF SCVD 061014Z 0612/0624 31008KT 9999 BKN030 TX11/0616Z TN08/0624Z=

Estación: SCJO
METAR SCJO 061500Z 01005KT 320V060 9999 BKN020 BKN030 10/10 Q1017=

TAF SCJO 061015Z 0612/0624 31008KT 9999 BKN035 TX10/0616Z TN07/0624Z=

Estación: SCTE
METAR SCTE 061500Z 02009KT 9999 BKN033 09/07 Q1016 NOSIG=

TAF SCTE 061016Z 0612/0712 33010KT 8000 -SHRA BKN035 TX10/0616Z TN06/0706Z TEMPO 0612/0614 5000 -SHRA OVC022 BECMG 0709/0711 03025KT=

Estación: SCPQ
METAR SCPQ 061500Z 31006KT 9999 SCT024 BKN045 08/06 Q1012=

TAF SCPQ 061021Z 0612/0624 30010KT 9999 BKN030 TX10/0616Z TN07/0624Z=

Estación: SCON
METAR SCON 061500Z VRB02KT 9999 BKN020 09/07 Q1011=

TAF SCON NIL=

Estación: SCTN
METAR SCTN 061500Z 35011KT 9999 -RA FEW010 SCT025 OVC040 09/07 Q1013=

TAF SCTN 061020Z 0612/0624 31007KT 9999 BKN030 TX10/0616Z TN07/0624Z=

Estación: SCFT
METAR SCFT 061500Z VRB02KT 4000 -RA BR FU SCT006 OVC033 03/02 Q1010=

NIL=

Estación: SCAP
METAR SCAP 061500Z VRB02KT 4000 -SHRASN BKN025 02/02 Q1016=

NIL=

Estación: SCMK
METAR SCMK 061500Z 32006KT 9999 SCT010 09/06 Q1008=

TAF SCMK 061017Z 0612/0624 30018KT 9999 BKN030 TX10/0616Z TN08/0621Z=

Estación: SCAS
METAR SCAS 061500Z 07005KT 8000 -RA FEW010 OVC030 05/05 Q1006=

NIL=

Estación: SCCY
METAR SCCY 061500Z 03006KT 9999 SCT020 BKN080 05/02 Q1004=

TAF SCCY 061018Z 0612/0624 34005KT 9999 BKN050 TX05/06Z TNM01/0624Z=

Estación: SCBA
METAR SCBA 061500Z 31008KT 9999 FEW010 SCT025 BKN200 03/01 Q1003=

TAF SCBA 061019Z 0612/0712 30005KT 9999 BKN050 TNM01/0606Z TX03/0616Z TEMPO 0612/0615 5000 -SHSN BKN007 OVC040=

Estación: SCCC
METAR SCCC 061500Z 00000KT 9999 FEW036 SCT070 BKN100 05/00 Q1003=

NIL=

Estación: SCHR
METAR SCHR 061500Z 00000KT 9999 FEW001 BKN035 00/M01 Q1000=

TAF SCHR 061020 0612/0700 VRB03KT 9000 BKN046 TNM02/0612Z TX04/0618Z TEMPO 0612/0614 01005KT 3000 RASN FZFG OVC010=


Volver